createdAt,value
2018-08-04T00:00:00.793Z,13.90
2018-08-04T00:02:27.892Z,10.60
2018-08-04T00:04:54.993Z,10.97
2018-08-04T00:07:22.124Z,12.17
2018-08-04T00:09:49.230Z,10.80
2018-08-04T00:12:16.516Z,10.83
2018-08-04T00:14:43.627Z,10.40
2018-08-04T00:17:10.743Z,11.43
2018-08-04T00:19:37.849Z,11.00
2018-08-04T00:22:04.963Z,11.00
2018-08-04T00:24:32.069Z,9.93
2018-08-04T00:26:59.177Z,9.80
2018-08-04T00:29:26.290Z,10.83
2018-08-04T00:31:53.388Z,10.50
2018-08-04T00:34:20.492Z,10.77
2018-08-04T00:36:47.601Z,13.37
2018-08-04T00:39:14.693Z,11.20
2018-08-04T00:41:41.789Z,10.33
2018-08-04T00:44:08.900Z,10.80
2018-08-04T00:46:36.025Z,11.97
2018-08-04T00:49:03.149Z,11.37
2018-08-04T00:51:30.281Z,11.07
2018-08-04T00:53:57.401Z,11.00
2018-08-04T00:56:24.496Z,10.20
2018-08-04T00:58:51.596Z,10.30
2018-08-04T01:01:18.700Z,10.93
2018-08-04T01:03:45.826Z,9.93
2018-08-04T01:06:12.943Z,9.90
2018-08-04T01:08:40.053Z,9.87
2018-08-04T01:11:07.245Z,10.17
2018-08-04T01:13:34.387Z,10.93
2018-08-04T01:16:01.485Z,10.07
2018-08-04T01:18:28.594Z,10.27
2018-08-04T01:20:55.731Z,11.20
2018-08-04T01:23:22.835Z,10.00
2018-08-04T01:25:49.941Z,11.00
2018-08-04T01:28:17.036Z,10.83
2018-08-04T01:30:44.180Z,10.20
2018-08-04T01:33:11.297Z,10.17
2018-08-04T01:35:38.397Z,9.97
2018-08-04T01:38:05.512Z,9.10
2018-08-04T01:40:32.609Z,10.90
2018-08-04T01:42:59.717Z,10.70
2018-08-04T01:45:26.817Z,11.20
2018-08-04T01:47:53.930Z,11.30
2018-08-04T01:50:21.029Z,9.93
2018-08-04T01:52:48.129Z,12.20
2018-08-04T01:55:15.237Z,10.63
2018-08-04T01:57:42.345Z,10.70
2018-08-04T02:00:09.521Z,9.97
2018-08-04T02:02:36.630Z,11.60
2018-08-04T02:05:03.810Z,10.33
2018-08-04T02:07:31.005Z,10.27
2018-08-04T02:09:58.107Z,9.90
2018-08-04T02:12:25.248Z,10.30
2018-08-04T02:14:52.353Z,9.63
2018-08-04T02:17:19.468Z,9.50
2018-08-04T02:19:46.584Z,12.63
2018-08-04T02:22:13.705Z,10.17
2018-08-04T02:24:40.974Z,9.70
2018-08-04T02:27:08.071Z,9.57
2018-08-04T02:29:35.202Z,10.13
2018-08-04T02:32:02.294Z,9.20
2018-08-04T02:34:29.410Z,10.00
2018-08-04T02:36:56.501Z,9.73
2018-08-04T02:39:23.601Z,9.87
2018-08-04T02:41:50.708Z,9.97
2018-08-04T02:44:17.829Z,11.10
2018-08-04T02:46:44.962Z,10.33
2018-08-04T02:49:12.065Z,9.80
2018-08-04T02:51:39.243Z,9.13
2018-08-04T02:54:06.317Z,10.10
2018-08-04T02:56:33.413Z,8.87
2018-08-04T02:59:00.510Z,9.37
2018-08-04T03:01:27.961Z,9.60
2018-08-04T03:03:55.110Z,9.60
2018-08-04T03:06:22.249Z,10.03
2018-08-04T03:08:49.373Z,8.90
2018-08-04T03:11:16.494Z,10.40
2018-08-04T03:13:43.586Z,9.60
2018-08-04T03:16:10.700Z,10.43
2018-08-04T03:18:37.794Z,9.57
2018-08-04T03:21:05.137Z,9.90
2018-08-04T03:23:32.282Z,9.40
2018-08-04T03:25:59.384Z,9.23
2018-08-04T03:28:26.498Z,10.60
2018-08-04T03:30:53.603Z,10.33
2018-08-04T03:33:20.765Z,10.73
2018-08-04T03:35:47.881Z,9.40
2018-08-04T03:38:15.007Z,9.77
2018-08-04T03:40:42.113Z,10.20
2018-08-04T03:43:09.270Z,10.20
2018-08-04T03:45:36.380Z,10.50
2018-08-04T03:48:03.490Z,10.50
2018-08-04T03:50:30.601Z,9.17
2018-08-04T03:52:57.736Z,13.20
2018-08-04T03:55:24.861Z,9.40
2018-08-04T03:57:51.994Z,9.57
2018-08-04T04:00:19.106Z,10.60
2018-08-04T04:02:46.198Z,9.57
2018-08-04T04:05:13.310Z,10.37
2018-08-04T04:07:40.422Z,10.57
2018-08-04T04:10:07.586Z,9.63
2018-08-04T04:12:34.697Z,10.77
2018-08-04T04:15:01.789Z,10.40
2018-08-04T04:17:33.716Z,10.80
2018-08-04T04:20:00.830Z,10.53
2018-08-04T04:22:27.945Z,10.73
2018-08-04T04:24:55.040Z,9.80
2018-08-04T04:27:22.169Z,10.67
2018-08-04T04:29:49.265Z,11.03
2018-08-04T04:32:16.389Z,10.30
2018-08-04T04:34:43.498Z,9.50
2018-08-04T04:37:10.601Z,10.30
2018-08-04T04:39:37.728Z,10.40
2018-08-04T04:42:04.860Z,11.10
2018-08-04T04:44:32.049Z,10.70
2018-08-04T04:46:59.185Z,10.17
2018-08-04T04:49:26.288Z,9.63
2018-08-04T04:51:53.880Z,11.03
2018-08-04T04:54:20.989Z,10.80
2018-08-04T04:56:48.090Z,10.80
2018-08-04T04:59:15.256Z,11.07
2018-08-04T05:01:42.366Z,11.13
2018-08-04T05:04:09.477Z,10.63
2018-08-04T05:06:36.605Z,10.83
2018-08-04T05:09:05.780Z,10.90
2018-08-04T05:11:32.889Z,11.43
2018-08-04T05:13:59.995Z,10.30
2018-08-04T05:16:27.141Z,10.60
2018-08-04T05:18:54.325Z,11.40
2018-08-04T05:21:21.425Z,12.37
2018-08-04T05:23:48.527Z,10.60
2018-08-04T05:26:15.630Z,11.27
2018-08-04T05:28:42.725Z,10.20
2018-08-04T05:31:09.848Z,10.50
2018-08-04T05:33:36.996Z,12.23
2018-08-04T05:36:04.241Z,10.23
2018-08-04T05:38:31.337Z,9.80
2018-08-04T05:40:58.437Z,10.63
2018-08-04T05:43:25.613Z,10.60
2018-08-04T05:45:52.676Z,10.70
2018-08-04T05:48:19.789Z,13.47
2018-08-04T05:50:46.905Z,11.17
2018-08-04T05:53:14.021Z,11.40
2018-08-04T05:55:41.205Z,18.43
2018-08-04T05:58:08.364Z,10.20
2018-08-04T06:00:35.519Z,10.90
2018-08-04T06:03:02.641Z,11.50
2018-08-04T06:05:29.750Z,10.33
2018-08-04T06:07:56.883Z,10.23
2018-08-04T06:10:23.966Z,9.97
2018-08-04T06:12:51.096Z,11.60
2018-08-04T06:15:18.212Z,12.13
2018-08-04T06:17:45.340Z,11.40
2018-08-04T06:20:12.457Z,9.40
2018-08-04T06:22:39.554Z,12.03
2018-08-04T06:25:06.714Z,8.80
2018-08-04T06:27:33.957Z,8.37
2018-08-04T06:30:01.091Z,9.10
2018-08-04T06:32:28.192Z,7.57
2018-08-04T06:34:55.392Z,8.23
2018-08-04T06:37:22.497Z,10.37
2018-08-04T06:39:49.630Z,10.53
2018-08-04T06:42:16.784Z,7.40
2018-08-04T06:44:45.953Z,7.30
2018-08-04T06:47:15.233Z,11.90
2018-08-04T06:49:46.107Z,7.40
2018-08-04T06:52:13.330Z,9.70
2018-08-04T06:54:40.434Z,9.00
2018-08-04T06:57:07.540Z,7.90
2018-08-04T06:59:34.674Z,10.87
2018-08-04T07:02:01.831Z,8.10
2018-08-04T07:04:28.995Z,7.33
2018-08-04T07:06:56.128Z,7.57
2018-08-04T07:09:23.423Z,8.10
2018-08-04T07:11:50.681Z,7.20
2018-08-04T07:14:17.876Z,6.83
2018-08-04T07:16:45.061Z,7.03
2018-08-04T07:19:12.154Z,8.07
2018-08-04T07:21:39.287Z,6.90
2018-08-04T07:24:06.411Z,7.10
2018-08-04T07:26:33.531Z,6.93
2018-08-04T07:29:00.853Z,6.67
2018-08-04T07:31:27.893Z,7.47
2018-08-04T07:33:54.998Z,8.07
2018-08-04T07:36:22.381Z,7.13
2018-08-04T07:38:49.477Z,7.07
2018-08-04T07:41:16.585Z,11.70
2018-08-04T07:43:43.685Z,8.77
2018-08-04T07:46:10.777Z,8.47
2018-08-04T07:48:37.972Z,6.60
2018-08-04T07:51:05.100Z,8.50
2018-08-04T07:53:32.261Z,9.80
2018-08-04T07:55:59.328Z,6.50
2018-08-04T07:58:26.454Z,8.07
2018-08-04T08:00:53.648Z,9.00
2018-08-04T08:03:20.748Z,11.30
2018-08-04T08:05:47.847Z,8.33
2018-08-04T08:08:15.021Z,9.83
2018-08-04T08:10:42.239Z,11.83
2018-08-04T08:13:09.261Z,6.10
2018-08-04T08:15:36.365Z,6.63
2018-08-04T08:18:03.473Z,6.97
2018-08-04T08:20:30.569Z,7.03
2018-08-04T08:22:57.685Z,7.63
2018-08-04T08:25:24.789Z,10.90
2018-08-04T08:27:51.897Z,6.23
2018-08-04T08:30:19.007Z,9.40
2018-08-04T08:32:46.324Z,5.87
2018-08-04T08:35:13.432Z,6.20
2018-08-04T08:37:41.044Z,6.23
2018-08-04T08:40:08.820Z,6.60
2018-08-04T08:42:35.980Z,6.27
2018-08-04T08:45:03.250Z,6.67
2018-08-04T08:47:30.393Z,11.53
2018-08-04T08:49:57.517Z,6.87
2018-08-04T08:52:24.644Z,6.47
2018-08-04T08:54:51.849Z,10.73
2018-08-04T08:57:18.968Z,6.10
2018-08-04T08:59:46.150Z,6.80
2018-08-04T09:02:13.277Z,6.57
2018-08-04T09:04:41.038Z,5.77
2018-08-04T09:07:08.174Z,6.40
2018-08-04T09:09:35.320Z,6.37
2018-08-04T09:12:02.476Z,6.30
2018-08-04T09:14:29.653Z,6.27
2018-08-04T09:16:56.805Z,5.90
2018-08-04T09:19:23.920Z,6.70
2018-08-04T09:21:51.028Z,7.63
2018-08-04T09:24:18.145Z,5.80
2018-08-04T09:26:45.260Z,13.63
2018-08-04T09:29:12.377Z,19.33
2018-08-04T09:31:39.468Z,9.53
2018-08-04T09:34:06.565Z,7.67
2018-08-04T09:36:33.717Z,5.60
2018-08-04T09:39:00.877Z,6.23
2018-08-04T09:41:27.961Z,6.37
2018-08-04T09:43:55.160Z,6.23
2018-08-04T09:46:22.242Z,5.20
2018-08-04T09:48:49.393Z,5.77
2018-08-04T09:51:16.523Z,5.70
2018-08-04T09:53:43.634Z,10.00
2018-08-04T09:56:10.728Z,8.70
2018-08-04T09:58:38.093Z,6.80
2018-08-04T10:01:11.027Z,4.67
2018-08-04T10:03:38.111Z,7.00
2018-08-04T10:06:05.301Z,4.87
2018-08-04T10:08:32.393Z,4.77
2018-08-04T10:10:59.497Z,5.03
2018-08-04T10:13:26.600Z,7.67
2018-08-04T10:15:53.761Z,4.77
2018-08-04T10:18:21.446Z,5.17
2018-08-04T10:20:48.582Z,5.40
2018-08-04T10:23:15.689Z,10.33
2018-08-04T10:25:42.808Z,5.13
2018-08-04T10:28:09.904Z,4.73
2018-08-04T10:30:37.045Z,7.33
2018-08-04T10:33:04.151Z,4.83
2018-08-04T10:35:31.246Z,6.47
2018-08-04T10:37:58.340Z,5.33
2018-08-04T10:40:25.502Z,6.40
2018-08-04T10:42:52.639Z,5.17
2018-08-04T10:45:19.722Z,3.93
2018-08-04T10:47:46.837Z,5.40
2018-08-04T10:50:13.960Z,4.10
2018-08-04T10:52:41.143Z,6.33
2018-08-04T10:55:08.278Z,7.50
2018-08-04T10:57:35.413Z,5.10
2018-08-04T11:00:02.513Z,5.13
2018-08-04T11:02:29.794Z,4.60
2018-08-04T11:04:56.900Z,4.27
2018-08-04T11:07:24.053Z,5.00
2018-08-04T11:09:51.152Z,5.40
2018-08-04T11:12:18.248Z,4.80
2018-08-04T11:14:45.365Z,4.50
2018-08-04T11:17:12.478Z,4.00
2018-08-04T11:19:39.807Z,5.23
2018-08-04T11:22:06.889Z,3.37
2018-08-04T11:24:34.009Z,3.47
2018-08-04T11:27:01.105Z,5.70
2018-08-04T11:29:28.293Z,3.83
2018-08-04T11:31:55.405Z,3.60
2018-08-04T11:34:22.501Z,6.40
2018-08-04T11:36:52.677Z,3.20
2018-08-04T11:39:19.852Z,3.90
2018-08-04T11:41:46.957Z,3.77
2018-08-04T11:44:14.057Z,9.87
2018-08-04T11:46:41.221Z,3.57
2018-08-04T11:49:08.321Z,3.20
2018-08-04T11:51:35.490Z,3.47
2018-08-04T11:54:02.777Z,3.30
2018-08-04T11:56:30.005Z,3.10
2018-08-04T11:58:57.108Z,3.40
2018-08-04T12:01:24.275Z,3.80
2018-08-04T12:03:51.630Z,3.33
2018-08-04T12:06:18.729Z,3.47
2018-08-04T12:08:45.827Z,2.80
2018-08-04T12:11:12.974Z,3.07
2018-08-04T12:13:40.169Z,4.23
2018-08-04T12:16:07.252Z,3.70
2018-08-04T12:18:34.560Z,4.30
2018-08-04T12:21:01.669Z,4.10
2018-08-04T12:23:28.777Z,3.40
2018-08-04T12:25:55.884Z,3.13
2018-08-04T12:28:22.992Z,3.00
2018-08-04T12:30:50.096Z,6.90
2018-08-04T12:33:17.252Z,4.00
2018-08-04T12:35:44.309Z,3.47
2018-08-04T12:38:11.441Z,3.10
2018-08-04T12:40:38.552Z,3.17
2018-08-04T12:43:05.710Z,3.30
2018-08-04T12:45:32.858Z,4.00
2018-08-04T12:47:59.973Z,3.10
2018-08-04T12:50:27.068Z,3.10
2018-08-04T12:52:54.205Z,3.60
2018-08-04T12:55:21.604Z,2.87
2018-08-04T12:57:48.719Z,3.37
2018-08-04T13:00:16.095Z,3.40
2018-08-04T13:02:43.171Z,3.23
2018-08-04T13:05:10.278Z,3.00
2018-08-04T13:07:37.393Z,3.23
2018-08-04T13:10:04.779Z,2.70
2018-08-04T13:12:31.922Z,3.00
2018-08-04T13:14:59.051Z,2.70
2018-08-04T13:17:26.368Z,3.70
2018-08-04T13:19:53.885Z,4.20
2018-08-04T13:22:21.024Z,2.90
2018-08-04T13:24:48.136Z,2.10
2018-08-04T13:27:15.254Z,2.73
2018-08-04T13:29:42.367Z,2.60
2018-08-04T13:32:09.485Z,3.20
2018-08-04T13:34:36.592Z,2.50
2018-08-04T13:37:03.744Z,2.93
2018-08-04T13:39:30.816Z,2.67
2018-08-04T13:41:57.936Z,2.80
2018-08-04T13:44:25.037Z,2.90
2018-08-04T13:46:52.138Z,3.20
2018-08-04T13:49:19.247Z,3.00
2018-08-04T13:51:46.359Z,7.87
2018-08-04T13:54:13.512Z,2.93
2018-08-04T13:56:40.662Z,3.00
2018-08-04T13:59:07.796Z,3.10
2018-08-04T14:01:34.925Z,3.00
2018-08-04T14:04:02.053Z,2.93
2018-08-04T14:06:29.625Z,2.90
2018-08-04T14:08:56.728Z,2.80
2018-08-04T14:11:23.849Z,3.00
2018-08-04T14:13:50.957Z,3.20
2018-08-04T14:16:18.065Z,4.30
2018-08-04T14:18:45.246Z,3.07
2018-08-04T14:21:12.636Z,5.93
2018-08-04T14:23:39.768Z,5.77
2018-08-04T14:26:06.877Z,3.07
2018-08-04T14:28:34.021Z,5.97
2018-08-04T14:31:01.117Z,3.13
2018-08-04T14:33:28.346Z,4.47
2018-08-04T14:35:55.433Z,3.20
2018-08-04T14:38:22.551Z,4.13
2018-08-04T14:40:49.694Z,2.77
2018-08-04T14:43:16.887Z,5.93
2018-08-04T14:45:43.965Z,2.70
2018-08-04T14:48:11.110Z,6.60
2018-08-04T14:50:38.190Z,3.73
2018-08-04T14:53:05.438Z,3.07
2018-08-04T14:55:32.556Z,2.90
2018-08-04T14:57:59.681Z,3.30
2018-08-04T15:00:26.788Z,2.80
2018-08-04T15:02:53.894Z,3.40
2018-08-04T15:05:21.023Z,3.77
2018-08-04T15:07:48.153Z,2.60
2018-08-04T15:10:15.368Z,3.50
2018-08-04T15:12:42.528Z,3.90
2018-08-04T15:15:09.778Z,4.20
2018-08-04T15:17:36.904Z,3.73
2018-08-04T15:20:04.399Z,2.63
2018-08-04T15:22:31.514Z,3.60
2018-08-04T15:24:59.127Z,2.53
2018-08-04T15:27:26.270Z,2.80
2018-08-04T15:29:53.394Z,2.87
2018-08-04T15:32:21.013Z,2.47
2018-08-04T15:34:48.125Z,5.87
2018-08-04T15:37:15.238Z,2.60
2018-08-04T15:39:42.368Z,3.40
2018-08-04T15:42:09.478Z,3.37
2018-08-04T15:44:36.580Z,2.43
2018-08-04T15:47:03.699Z,2.27
2018-08-04T15:49:30.806Z,2.73
2018-08-04T15:51:57.904Z,3.50
2018-08-04T15:54:25.069Z,2.93
2018-08-04T15:56:52.300Z,2.30
2018-08-04T15:59:19.408Z,2.90
2018-08-04T16:01:46.859Z,7.20
2018-08-04T16:04:14.422Z,2.53
2018-08-04T16:06:41.527Z,3.27
2018-08-04T16:09:10.006Z,2.80
2018-08-04T16:11:37.201Z,2.80
2018-08-04T16:14:04.302Z,3.17
2018-08-04T16:16:31.464Z,2.50
2018-08-04T16:18:58.641Z,2.77
2018-08-04T16:21:25.854Z,3.33
2018-08-04T16:23:52.957Z,3.40
2018-08-04T16:26:20.297Z,4.63
2018-08-04T16:28:47.429Z,5.83
2018-08-04T16:31:14.609Z,3.10
2018-08-04T16:33:41.751Z,3.30
2018-08-04T16:36:08.852Z,3.20
2018-08-04T16:38:36.272Z,2.93
2018-08-04T16:41:03.403Z,3.03
2018-08-04T16:43:30.559Z,3.50
2018-08-04T16:45:57.898Z,4.53
2018-08-04T16:48:25.011Z,4.90
2018-08-04T16:50:52.299Z,4.67
2018-08-04T16:53:19.421Z,5.80
2018-08-04T16:55:46.568Z,10.60
2018-08-04T16:58:13.700Z,7.80
2018-08-04T17:00:40.802Z,4.80
2018-08-04T17:03:07.975Z,4.00
2018-08-04T17:05:35.083Z,6.23
2018-08-04T17:08:02.218Z,3.47
2018-08-04T17:10:29.326Z,3.93
2018-08-04T17:12:56.451Z,3.20
2018-08-04T17:15:23.560Z,3.30
2018-08-04T17:17:50.701Z,4.60
2018-08-04T17:20:17.821Z,3.80
2018-08-04T17:22:44.909Z,3.40
2018-08-04T17:25:12.009Z,4.60
2018-08-04T17:27:39.105Z,10.50
2018-08-04T17:30:06.244Z,39.30
2018-08-04T17:32:33.416Z,4.67
2018-08-04T17:35:00.534Z,3.97
2018-08-04T17:37:27.701Z,5.83
2018-08-04T17:39:54.766Z,2.93
2018-08-04T17:42:21.912Z,3.40
2018-08-04T17:44:49.033Z,3.00
2018-08-04T17:47:16.149Z,4.80
2018-08-04T17:49:43.255Z,3.13
2018-08-04T17:52:10.363Z,5.37
2018-08-04T17:54:37.536Z,4.23
2018-08-04T17:57:04.722Z,411.20
2018-08-04T17:59:31.929Z,1157.30
2018-08-04T18:01:59.227Z,894.17
2018-08-04T18:04:26.359Z,138.33
2018-08-04T18:06:53.534Z,69.97
2018-08-04T18:09:20.679Z,623.27
2018-08-04T18:11:47.809Z,69.53
2018-08-04T18:14:14.914Z,41.43
2018-08-04T18:16:42.045Z,28.47
2018-08-04T18:19:09.167Z,15.67
2018-08-04T18:21:36.269Z,8.90
2018-08-04T18:24:03.397Z,67.97
2018-08-04T18:26:30.536Z,117.33
2018-08-04T18:28:57.764Z,46.93
2018-08-04T18:31:25.042Z,322.10
2018-08-04T18:33:52.166Z,22.43
2018-08-04T18:36:19.332Z,61.47
2018-08-04T18:38:46.469Z,25.23
2018-08-04T18:41:13.666Z,7.60
2018-08-04T18:43:40.789Z,6.33
2018-08-04T18:46:07.900Z,3.30
2018-08-04T18:48:35.035Z,4.27
2018-08-04T18:51:02.186Z,9.00
2018-08-04T18:53:29.306Z,45.77
2018-08-04T18:55:56.477Z,155.80
2018-08-04T18:59:26.630Z,7.83
2018-08-04T19:01:53.779Z,3.20
2018-08-04T19:04:21.112Z,4.40
2018-08-04T19:06:48.265Z,3.33
2018-08-04T19:09:15.407Z,3.30
2018-08-04T19:11:42.521Z,2.50
2018-08-04T19:14:10.389Z,37.93
2018-08-04T19:16:37.536Z,3.37
2018-08-04T19:19:04.729Z,2.60
2018-08-04T19:21:31.852Z,3.30
2018-08-04T19:23:59.014Z,4.00
2018-08-04T19:26:26.127Z,3.43
2018-08-04T19:28:53.425Z,7.43
2018-08-04T19:31:20.605Z,4.33
2018-08-04T19:33:47.725Z,4.00
2018-08-04T19:36:14.932Z,17.90
2018-08-04T19:38:42.010Z,3.23
2018-08-04T19:41:09.175Z,2.90
2018-08-04T19:43:36.256Z,3.03
2018-08-04T19:46:03.527Z,4.37
2018-08-04T19:48:30.641Z,2.80
2018-08-04T19:50:57.778Z,3.03
2018-08-04T19:53:24.885Z,3.10
2018-08-04T19:55:52.114Z,8.77
2018-08-04T19:58:19.306Z,3.20
2018-08-04T20:00:46.426Z,3.20
2018-08-04T20:03:13.546Z,9.47
2018-08-04T20:05:40.640Z,3.40
2018-08-04T20:08:08.184Z,3.60
2018-08-04T20:10:35.654Z,3.97
2018-08-04T20:13:02.778Z,17.40
2018-08-04T20:15:29.920Z,5.63
2018-08-04T20:17:57.062Z,3.67
2018-08-04T20:20:24.177Z,4.27
2018-08-04T20:22:51.404Z,4.23
2018-08-04T20:25:19.761Z,4.03
2018-08-04T20:27:46.861Z,6.83
2018-08-04T20:30:14.756Z,3.73
2018-08-04T20:32:41.896Z,3.40
2018-08-04T20:35:09.070Z,3.53
2018-08-04T20:37:36.192Z,4.80
2018-08-04T20:40:03.353Z,6.23
2018-08-04T20:42:30.523Z,2.97
2018-08-04T20:44:57.649Z,5.90
2018-08-04T20:47:24.869Z,3.60
2018-08-04T20:49:51.939Z,3.50
2018-08-04T20:52:19.082Z,6.07
2018-08-04T20:54:46.186Z,4.80
2018-08-04T20:57:13.387Z,4.90
2018-08-04T20:59:40.520Z,3.53
2018-08-04T21:02:07.662Z,4.13
2018-08-04T21:04:35.673Z,5.37
2018-08-04T21:07:03.465Z,4.73
2018-08-04T21:09:30.601Z,3.43
2018-08-04T21:11:57.859Z,6.73
2018-08-04T21:14:26.045Z,4.63
2018-08-04T21:16:53.958Z,3.37
2018-08-04T21:19:21.983Z,6.13
2018-08-04T21:21:49.085Z,4.80
2018-08-04T21:24:16.973Z,5.97
2018-08-04T21:26:44.199Z,3.40
2018-08-04T21:29:11.373Z,3.43
2018-08-04T21:31:44.919Z,4.90
2018-08-04T21:34:12.690Z,4.37
2018-08-04T21:36:40.073Z,3.73
2018-08-04T21:39:08.037Z,4.13
2018-08-04T21:41:35.209Z,3.90
2018-08-04T21:44:03.838Z,7.30
2018-08-04T21:46:33.114Z,3.37
2018-08-04T21:49:00.262Z,5.13
2018-08-04T21:51:27.404Z,3.63
2018-08-04T21:53:56.026Z,3.63
2018-08-04T21:56:24.221Z,3.07
2018-08-04T21:58:51.374Z,4.20
2018-08-04T22:01:18.503Z,3.17
2018-08-04T22:03:45.687Z,6.57
2018-08-04T22:06:13.411Z,3.50
2018-08-04T22:08:46.057Z,4.40
2018-08-04T22:11:13.232Z,3.00
2018-08-04T22:13:40.337Z,3.30
2018-08-04T22:16:07.451Z,3.40
2018-08-04T22:18:34.669Z,3.80
2018-08-04T22:21:01.805Z,5.00
2018-08-04T22:23:28.919Z,3.47
2018-08-04T22:25:56.110Z,3.40
2018-08-04T22:28:23.219Z,3.70
2018-08-04T22:30:50.324Z,5.57
2018-08-04T22:33:17.440Z,10.53
2018-08-04T22:35:44.714Z,5.00
2018-08-04T22:38:11.826Z,4.03
2018-08-04T22:40:38.986Z,4.60
2018-08-04T22:43:06.132Z,3.00
2018-08-04T22:45:48.055Z,4.70
2018-08-04T22:48:15.149Z,3.00
2018-08-04T22:50:42.267Z,2.90
2018-08-04T22:53:09.376Z,2.87
2018-08-04T22:55:36.537Z,2.80
2018-08-04T22:58:03.811Z,2.70
2018-08-04T23:00:30.982Z,2.90
2018-08-04T23:02:58.198Z,4.10
2018-08-04T23:05:25.307Z,5.03
2018-08-04T23:07:52.409Z,2.67
2018-08-04T23:10:19.531Z,2.63
2018-08-04T23:12:46.656Z,2.90
2018-08-04T23:15:13.755Z,3.03
2018-08-04T23:17:40.930Z,6.20
2018-08-04T23:20:08.057Z,3.00
2018-08-04T23:22:35.197Z,2.87
2018-08-04T23:25:02.296Z,3.63
2018-08-04T23:27:29.404Z,3.00
2018-08-04T23:29:56.541Z,3.07
2018-08-04T23:32:23.625Z,2.80
2018-08-04T23:34:50.753Z,2.50
2018-08-04T23:37:17.885Z,3.17
2018-08-04T23:39:45.001Z,4.00
2018-08-04T23:42:12.110Z,3.23
2018-08-04T23:44:39.225Z,2.80
2018-08-04T23:47:06.428Z,2.70
2018-08-04T23:49:33.592Z,3.00
2018-08-04T23:52:00.670Z,3.25
2018-08-04T23:54:27.847Z,2.97
2018-08-04T23:56:54.959Z,3.43
2018-08-04T23:59:22.089Z,3.37
